sensor_id;sensor_type;location;lat;lon;timestamp;P1;durP1;ratioP1;P2;durP2;ratioP2
18711;SDS011;9485;49.386;8.674;2023-03-05T00:03:34;25.43;;;11.70;;
18711;SDS011;9485;49.386;8.674;2023-03-05T00:08:54;22.60;;;12.33;;
18711;SDS011;9485;49.386;8.674;2023-03-05T00:14:16;23.93;;;12.47;;
18711;SDS011;9485;49.386;8.674;2023-03-05T00:19:38;26.27;;;12.00;;
18711;SDS011;9485;49.386;8.674;2023-03-05T00:24:58;22.10;;;11.80;;
18711;SDS011;9485;49.386;8.674;2023-03-05T00:30:20;23.87;;;11.83;;
18711;SDS011;9485;49.386;8.674;2023-03-05T00:35:42;21.90;;;12.13;;
18711;SDS011;9485;49.386;8.674;2023-03-05T00:41:05;22.77;;;11.77;;
18711;SDS011;9485;49.386;8.674;2023-03-05T00:46:25;24.27;;;12.03;;
18711;SDS011;9485;49.386;8.674;2023-03-05T00:51:47;30.43;;;12.83;;
18711;SDS011;9485;49.386;8.674;2023-03-05T00:57:08;23.00;;;11.87;;
18711;SDS011;9485;49.386;8.674;2023-03-05T01:02:29;23.20;;;11.40;;
18711;SDS011;9485;49.386;8.674;2023-03-05T01:07:52;22.53;;;11.40;;
18711;SDS011;9485;49.386;8.674;2023-03-05T01:13:13;25.40;;;12.17;;
18711;SDS011;9485;49.386;8.674;2023-03-05T01:18:33;22.60;;;11.63;;
18711;SDS011;9485;49.386;8.674;2023-03-05T01:23:58;22.20;;;12.67;;
18711;SDS011;9485;49.386;8.674;2023-03-05T01:29:18;27.13;;;11.90;;
18711;SDS011;9485;49.386;8.674;2023-03-05T01:34:39;22.20;;;11.03;;
18711;SDS011;9485;49.386;8.674;2023-03-05T01:40:02;23.80;;;12.00;;
18711;SDS011;9485;49.386;8.674;2023-03-05T01:45:24;23.60;;;11.93;;
18711;SDS011;9485;49.386;8.674;2023-03-05T01:50:46;21.53;;;12.00;;
18711;SDS011;9485;49.386;8.674;2023-03-05T01:56:08;22.50;;;11.40;;
18711;SDS011;9485;49.386;8.674;2023-03-05T02:01:30;24.37;;;11.27;;
18711;SDS011;9485;49.386;8.674;2023-03-05T02:06:56;28.03;;;12.30;;
18711;SDS011;9485;49.386;8.674;2023-03-05T02:12:19;23.83;;;12.33;;
18711;SDS011;9485;49.386;8.674;2023-03-05T02:17:41;25.50;;;12.23;;
18711;SDS011;9485;49.386;8.674;2023-03-05T02:23:03;19.90;;;10.47;;
18711;SDS011;9485;49.386;8.674;2023-03-05T02:28:25;26.00;;;12.20;;
18711;SDS011;9485;49.386;8.674;2023-03-05T02:33:51;25.10;;;11.73;;
18711;SDS011;9485;49.386;8.674;2023-03-05T02:39:18;23.10;;;10.77;;
18711;SDS011;9485;49.386;8.674;2023-03-05T02:44:39;25.27;;;11.17;;
18711;SDS011;9485;49.386;8.674;2023-03-05T02:50:00;22.70;;;10.70;;
18711;SDS011;9485;49.386;8.674;2023-03-05T02:55:22;20.17;;;10.43;;
18711;SDS011;9485;49.386;8.674;2023-03-05T03:00:43;23.17;;;11.53;;
18711;SDS011;9485;49.386;8.674;2023-03-05T03:06:05;23.77;;;11.00;;
18711;SDS011;9485;49.386;8.674;2023-03-05T03:11:27;20.00;;;10.33;;
18711;SDS011;9485;49.386;8.674;2023-03-05T03:16:48;22.90;;;11.10;;
18711;SDS011;9485;49.386;8.674;2023-03-05T03:22:09;20.40;;;11.70;;
18711;SDS011;9485;49.386;8.674;2023-03-05T03:27:33;21.90;;;11.23;;
18711;SDS011;9485;49.386;8.674;2023-03-05T03:32:54;22.60;;;10.87;;
18711;SDS011;9485;49.386;8.674;2023-03-05T03:38:14;20.07;;;10.53;;
18711;SDS011;9485;49.386;8.674;2023-03-05T03:43:36;22.67;;;11.57;;
18711;SDS011;9485;49.386;8.674;2023-03-05T03:48:57;21.93;;;10.47;;
18711;SDS011;9485;49.386;8.674;2023-03-05T03:54:18;21.00;;;9.93;;
18711;SDS011;9485;49.386;8.674;2023-03-05T03:59:40;19.50;;;10.43;;
18711;SDS011;9485;49.386;8.674;2023-03-05T04:05:03;18.73;;;10.43;;
18711;SDS011;9485;49.386;8.674;2023-03-05T04:10:25;22.03;;;11.30;;
18711;SDS011;9485;49.386;8.674;2023-03-05T04:15:48;25.33;;;11.30;;
18711;SDS011;9485;49.386;8.674;2023-03-05T04:21:09;23.00;;;12.07;;
18711;SDS011;9485;49.386;8.674;2023-03-05T04:26:29;24.70;;;11.53;;
18711;SDS011;9485;49.386;8.674;2023-03-05T04:31:51;20.83;;;11.10;;
18711;SDS011;9485;49.386;8.674;2023-03-05T04:37:12;23.30;;;11.00;;
18711;SDS011;9485;49.386;8.674;2023-03-05T04:42:33;22.57;;;12.17;;
18711;SDS011;9485;49.386;8.674;2023-03-05T04:47:56;24.63;;;12.30;;
18711;SDS011;9485;49.386;8.674;2023-03-05T04:53:17;23.67;;;12.13;;
18711;SDS011;9485;49.386;8.674;2023-03-05T04:58:38;21.93;;;11.43;;
18711;SDS011;9485;49.386;8.674;2023-03-05T05:04:00;23.27;;;12.03;;
18711;SDS011;9485;49.386;8.674;2023-03-05T05:09:22;23.33;;;12.20;;
18711;SDS011;9485;49.386;8.674;2023-03-05T05:14:44;24.00;;;11.60;;
18711;SDS011;9485;49.386;8.674;2023-03-05T05:20:07;22.87;;;11.97;;
18711;SDS011;9485;49.386;8.674;2023-03-05T05:25:30;22.00;;;11.43;;
18711;SDS011;9485;49.386;8.674;2023-03-05T05:30:51;26.27;;;12.27;;
18711;SDS011;9485;49.386;8.674;2023-03-05T05:36:15;23.23;;;12.17;;
18711;SDS011;9485;49.386;8.674;2023-03-05T05:41:39;22.77;;;11.27;;
18711;SDS011;9485;49.386;8.674;2023-03-05T05:47:00;22.03;;;11.23;;
18711;SDS011;9485;49.386;8.674;2023-03-05T05:52:22;21.93;;;11.03;;
18711;SDS011;9485;49.386;8.674;2023-03-05T05:57:42;21.73;;;11.23;;
18711;SDS011;9485;49.386;8.674;2023-03-05T06:03:04;26.20;;;11.47;;
18711;SDS011;9485;49.386;8.674;2023-03-05T06:08:26;24.73;;;11.30;;
18711;SDS011;9485;49.386;8.674;2023-03-05T06:13:47;21.87;;;11.30;;
18711;SDS011;9485;49.386;8.674;2023-03-05T06:19:09;21.80;;;12.00;;
18711;SDS011;9485;49.386;8.674;2023-03-05T06:24:33;23.17;;;11.57;;
18711;SDS011;9485;49.386;8.674;2023-03-05T06:29:53;25.67;;;11.70;;
18711;SDS011;9485;49.386;8.674;2023-03-05T06:35:15;21.93;;;11.57;;
18711;SDS011;9485;49.386;8.674;2023-03-05T06:40:38;24.63;;;12.53;;
18711;SDS011;9485;49.386;8.674;2023-03-05T06:46:05;23.87;;;12.13;;
18711;SDS011;9485;49.386;8.674;2023-03-05T06:51:32;25.77;;;12.53;;
18711;SDS011;9485;49.386;8.674;2023-03-05T06:56:59;20.97;;;11.53;;
18711;SDS011;9485;49.386;8.674;2023-03-05T07:02:21;22.87;;;11.50;;
18711;SDS011;9485;49.386;8.674;2023-03-05T07:08:08;28.43;;;13.60;;
18711;SDS011;9485;49.386;8.674;2023-03-05T07:13:32;21.57;;;11.43;;
18711;SDS011;9485;49.386;8.674;2023-03-05T07:18:55;24.20;;;12.10;;
18711;SDS011;9485;49.386;8.674;2023-03-05T07:24:26;22.57;;;12.13;;
18711;SDS011;9485;49.386;8.674;2023-03-05T07:29:49;25.30;;;12.93;;
18711;SDS011;9485;49.386;8.674;2023-03-05T07:35:10;29.97;;;13.37;;
18711;SDS011;9485;49.386;8.674;2023-03-05T07:40:33;27.57;;;13.47;;
18711;SDS011;9485;49.386;8.674;2023-03-05T07:45:55;25.13;;;12.87;;
18711;SDS011;9485;49.386;8.674;2023-03-05T07:51:20;23.53;;;13.70;;
18711;SDS011;9485;49.386;8.674;2023-03-05T07:56:44;25.33;;;12.20;;
18711;SDS011;9485;49.386;8.674;2023-03-05T08:02:06;22.80;;;12.50;;
18711;SDS011;9485;49.386;8.674;2023-03-05T08:07:30;28.50;;;11.87;;
18711;SDS011;9485;49.386;8.674;2023-03-05T08:12:52;21.23;;;11.23;;
18711;SDS011;9485;49.386;8.674;2023-03-05T08:18:15;22.80;;;12.23;;
18711;SDS011;9485;49.386;8.674;2023-03-05T08:23:37;25.17;;;12.87;;
18711;SDS011;9485;49.386;8.674;2023-03-05T08:28:58;26.80;;;13.83;;
18711;SDS011;9485;49.386;8.674;2023-03-05T08:34:23;24.90;;;12.90;;
18711;SDS011;9485;49.386;8.674;2023-03-05T08:39:47;23.10;;;12.90;;
18711;SDS011;9485;49.386;8.674;2023-03-05T08:45:11;23.17;;;11.93;;
18711;SDS011;9485;49.386;8.674;2023-03-05T08:50:35;24.23;;;12.57;;
18711;SDS011;9485;49.386;8.674;2023-03-05T08:55:57;22.03;;;11.20;;
18711;SDS011;9485;49.386;8.674;2023-03-05T09:01:18;21.40;;;11.20;;
18711;SDS011;9485;49.386;8.674;2023-03-05T09:06:41;21.00;;;11.53;;
18711;SDS011;9485;49.386;8.674;2023-03-05T09:12:05;15.90;;;10.43;;
18711;SDS011;9485;49.386;8.674;2023-03-05T09:17:29;21.43;;;11.77;;
18711;SDS011;9485;49.386;8.674;2023-03-05T09:22:52;20.93;;;11.57;;
18711;SDS011;9485;49.386;8.674;2023-03-05T09:28:14;22.00;;;11.17;;
18711;SDS011;9485;49.386;8.674;2023-03-05T09:33:35;17.13;;;10.07;;
18711;SDS011;9485;49.386;8.674;2023-03-05T09:39:02;16.17;;;10.13;;
18711;SDS011;9485;49.386;8.674;2023-03-05T09:44:26;13.73;;;8.57;;
18711;SDS011;9485;49.386;8.674;2023-03-05T09:49:56;13.77;;;7.53;;
18711;SDS011;9485;49.386;8.674;2023-03-05T09:55:24;11.47;;;7.13;;
18711;SDS011;9485;49.386;8.674;2023-03-05T10:00:53;11.13;;;7.57;;
18711;SDS011;9485;49.386;8.674;2023-03-05T10:06:21;13.10;;;7.50;;
18711;SDS011;9485;49.386;8.674;2023-03-05T10:11:50;12.70;;;7.00;;
18711;SDS011;9485;49.386;8.674;2023-03-05T10:29:32;11.63;;;6.90;;
18711;SDS011;9485;49.386;8.674;2023-03-05T10:35:31;13.17;;;7.13;;
18711;SDS011;9485;49.386;8.674;2023-03-05T10:41:06;12.40;;;7.47;;
18711;SDS011;9485;49.386;8.674;2023-03-05T10:46:42;9.43;;;6.13;;
18711;SDS011;9485;49.386;8.674;2023-03-05T10:52:07;10.43;;;6.73;;
18711;SDS011;9485;49.386;8.674;2023-03-05T10:57:35;8.73;;;5.43;;
18711;SDS011;9485;49.386;8.674;2023-03-05T11:02:59;9.97;;;5.73;;
18711;SDS011;9485;49.386;8.674;2023-03-05T11:08:25;8.87;;;5.60;;
18711;SDS011;9485;49.386;8.674;2023-03-05T11:13:55;9.77;;;6.33;;
18711;SDS011;9485;49.386;8.674;2023-03-05T11:19:23;10.90;;;6.03;;
18711;SDS011;9485;49.386;8.674;2023-03-05T11:25:02;10.87;;;6.23;;
18711;SDS011;9485;49.386;8.674;2023-03-05T11:31:03;7.63;;;5.23;;
18711;SDS011;9485;49.386;8.674;2023-03-05T11:36:43;7.57;;;5.00;;
18711;SDS011;9485;49.386;8.674;2023-03-05T11:42:21;6.93;;;4.47;;
18711;SDS011;9485;49.386;8.674;2023-03-05T11:47:44;9.57;;;4.63;;
18711;SDS011;9485;49.386;8.674;2023-03-05T11:53:12;8.07;;;5.17;;
18711;SDS011;9485;49.386;8.674;2023-03-05T11:58:42;6.33;;;4.47;;
18711;SDS011;9485;49.386;8.674;2023-03-05T12:04:10;5.97;;;4.20;;
18711;SDS011;9485;49.386;8.674;2023-03-05T12:09:38;6.27;;;3.90;;
18711;SDS011;9485;49.386;8.674;2023-03-05T12:15:23;7.13;;;4.40;;
18711;SDS011;9485;49.386;8.674;2023-03-05T12:21:00;6.67;;;3.90;;
18711;SDS011;9485;49.386;8.674;2023-03-05T12:38:27;6.10;;;3.67;;
18711;SDS011;9485;49.386;8.674;2023-03-05T12:49:42;7.67;;;4.27;;
18711;SDS011;9485;49.386;8.674;2023-03-05T12:55:14;6.93;;;4.40;;
18711;SDS011;9485;49.386;8.674;2023-03-05T13:00:45;4.07;;;3.00;;
18711;SDS011;9485;49.386;8.674;2023-03-05T13:06:21;6.07;;;3.70;;
18711;SDS011;9485;49.386;8.674;2023-03-05T13:11:47;6.27;;;3.47;;
18711;SDS011;9485;49.386;8.674;2023-03-05T13:23:17;7.67;;;3.90;;
18711;SDS011;9485;49.386;8.674;2023-03-05T13:29:08;8.53;;;4.10;;
18711;SDS011;9485;49.386;8.674;2023-03-05T13:34:33;6.97;;;4.10;;
18711;SDS011;9485;49.386;8.674;2023-03-05T13:39:56;4.73;;;3.13;;
18711;SDS011;9485;49.386;8.674;2023-03-05T13:45:25;5.67;;;3.53;;
18711;SDS011;9485;49.386;8.674;2023-03-05T13:50:53;6.83;;;3.50;;
18711;SDS011;9485;49.386;8.674;2023-03-05T13:56:17;6.73;;;3.40;;
18711;SDS011;9485;49.386;8.674;2023-03-05T14:01:44;6.57;;;3.80;;
18711;SDS011;9485;49.386;8.674;2023-03-05T14:07:23;5.53;;;3.63;;
18711;SDS011;9485;49.386;8.674;2023-03-05T14:12:50;4.53;;;3.47;;
18711;SDS011;9485;49.386;8.674;2023-03-05T14:18:18;5.93;;;3.53;;
18711;SDS011;9485;49.386;8.674;2023-03-05T14:23:40;5.37;;;3.10;;
18711;SDS011;9485;49.386;8.674;2023-03-05T14:29:12;5.93;;;3.27;;
18711;SDS011;9485;49.386;8.674;2023-03-05T14:34:37;4.53;;;3.17;;
18711;SDS011;9485;49.386;8.674;2023-03-05T14:40:02;4.37;;;2.97;;
18711;SDS011;9485;49.386;8.674;2023-03-05T14:45:50;4.60;;;2.97;;
18711;SDS011;9485;49.386;8.674;2023-03-05T14:51:10;5.37;;;2.93;;
18711;SDS011;9485;49.386;8.674;2023-03-05T14:56:33;6.53;;;2.87;;
18711;SDS011;9485;49.386;8.674;2023-03-05T15:01:54;5.37;;;3.30;;
18711;SDS011;9485;49.386;8.674;2023-03-05T15:07:16;4.13;;;3.00;;
18711;SDS011;9485;49.386;8.674;2023-03-05T15:12:49;4.63;;;2.50;;
18711;SDS011;9485;49.386;8.674;2023-03-05T15:18:11;3.30;;;2.20;;
18711;SDS011;9485;49.386;8.674;2023-03-05T15:23:34;3.90;;;2.47;;
18711;SDS011;9485;49.386;8.674;2023-03-05T15:28:57;4.07;;;3.00;;
18711;SDS011;9485;49.386;8.674;2023-03-05T15:34:17;4.83;;;3.17;;
18711;SDS011;9485;49.386;8.674;2023-03-05T15:39:38;7.97;;;4.67;;
18711;SDS011;9485;49.386;8.674;2023-03-05T15:45:00;9.53;;;5.13;;
18711;SDS011;9485;49.386;8.674;2023-03-05T15:50:21;5.53;;;3.70;;
18711;SDS011;9485;49.386;8.674;2023-03-05T15:55:42;4.70;;;3.00;;
18711;SDS011;9485;49.386;8.674;2023-03-05T16:01:06;6.73;;;3.43;;
18711;SDS011;9485;49.386;8.674;2023-03-05T16:06:26;5.23;;;3.50;;
18711;SDS011;9485;49.386;8.674;2023-03-05T16:11:48;5.10;;;3.30;;
18711;SDS011;9485;49.386;8.674;2023-03-05T16:17:10;5.23;;;2.63;;
18711;SDS011;9485;49.386;8.674;2023-03-05T16:22:33;4.50;;;2.80;;
18711;SDS011;9485;49.386;8.674;2023-03-05T16:27:54;4.10;;;2.80;;
18711;SDS011;9485;49.386;8.674;2023-03-05T16:33:16;3.80;;;2.60;;
18711;SDS011;9485;49.386;8.674;2023-03-05T16:38:37;3.23;;;2.50;;
18711;SDS011;9485;49.386;8.674;2023-03-05T16:44:22;3.30;;;2.73;;
18711;SDS011;9485;49.386;8.674;2023-03-05T16:49:44;5.07;;;3.07;;
18711;SDS011;9485;49.386;8.674;2023-03-05T16:55:05;5.20;;;3.23;;
18711;SDS011;9485;49.386;8.674;2023-03-05T17:00:26;3.33;;;2.37;;
18711;SDS011;9485;49.386;8.674;2023-03-05T17:05:48;5.33;;;3.43;;
18711;SDS011;9485;49.386;8.674;2023-03-05T17:11:09;3.30;;;2.53;;
18711;SDS011;9485;49.386;8.674;2023-03-05T17:16:30;3.67;;;2.50;;
18711;SDS011;9485;49.386;8.674;2023-03-05T17:21:52;3.00;;;2.33;;
18711;SDS011;9485;49.386;8.674;2023-03-05T17:27:13;3.87;;;3.03;;
18711;SDS011;9485;49.386;8.674;2023-03-05T17:32:36;3.60;;;2.87;;
18711;SDS011;9485;49.386;8.674;2023-03-05T17:38:00;4.90;;;3.30;;
18711;SDS011;9485;49.386;8.674;2023-03-05T17:43:22;3.33;;;2.77;;
18711;SDS011;9485;49.386;8.674;2023-03-05T17:48:42;5.13;;;2.83;;
18711;SDS011;9485;49.386;8.674;2023-03-05T17:54:05;4.30;;;3.10;;
18711;SDS011;9485;49.386;8.674;2023-03-05T17:59:25;2.90;;;2.60;;
18711;SDS011;9485;49.386;8.674;2023-03-05T18:04:47;3.53;;;2.43;;
18711;SDS011;9485;49.386;8.674;2023-03-05T18:10:11;4.00;;;2.93;;
18711;SDS011;9485;49.386;8.674;2023-03-05T18:15:40;4.70;;;3.47;;
18711;SDS011;9485;49.386;8.674;2023-03-05T18:21:05;6.73;;;4.30;;
18711;SDS011;9485;49.386;8.674;2023-03-05T18:26:26;6.97;;;4.53;;
18711;SDS011;9485;49.386;8.674;2023-03-05T18:31:47;6.90;;;4.70;;
18711;SDS011;9485;49.386;8.674;2023-03-05T18:37:08;7.80;;;4.50;;
18711;SDS011;9485;49.386;8.674;2023-03-05T18:42:32;6.73;;;4.90;;
18711;SDS011;9485;49.386;8.674;2023-03-05T18:47:53;7.67;;;4.63;;
18711;SDS011;9485;49.386;8.674;2023-03-05T18:53:14;5.37;;;3.93;;
18711;SDS011;9485;49.386;8.674;2023-03-05T18:58:37;5.70;;;4.00;;
18711;SDS011;9485;49.386;8.674;2023-03-05T19:03:57;8.10;;;4.77;;
18711;SDS011;9485;49.386;8.674;2023-03-05T19:09:18;5.10;;;4.23;;
18711;SDS011;9485;49.386;8.674;2023-03-05T19:14:56;5.27;;;4.10;;
18711;SDS011;9485;49.386;8.674;2023-03-05T19:20:17;6.80;;;4.17;;
18711;SDS011;9485;49.386;8.674;2023-03-05T19:25:44;6.03;;;4.37;;
18711;SDS011;9485;49.386;8.674;2023-03-05T19:31:06;6.77;;;4.73;;
18711;SDS011;9485;49.386;8.674;2023-03-05T19:36:27;6.57;;;4.97;;
18711;SDS011;9485;49.386;8.674;2023-03-05T19:41:48;6.50;;;4.77;;
18711;SDS011;9485;49.386;8.674;2023-03-05T19:47:11;6.60;;;4.53;;
18711;SDS011;9485;49.386;8.674;2023-03-05T19:52:32;6.47;;;4.93;;
18711;SDS011;9485;49.386;8.674;2023-03-05T19:57:52;8.43;;;4.63;;
18711;SDS011;9485;49.386;8.674;2023-03-05T20:03:14;6.73;;;4.20;;
18711;SDS011;9485;49.386;8.674;2023-03-05T20:08:35;5.43;;;4.20;;
18711;SDS011;9485;49.386;8.674;2023-03-05T20:13:56;5.03;;;4.10;;
18711;SDS011;9485;49.386;8.674;2023-03-05T20:19:18;6.20;;;4.23;;
18711;SDS011;9485;49.386;8.674;2023-03-05T20:24:39;6.60;;;4.40;;
18711;SDS011;9485;49.386;8.674;2023-03-05T20:30:00;7.03;;;4.30;;
18711;SDS011;9485;49.386;8.674;2023-03-05T20:35:24;5.13;;;3.60;;
18711;SDS011;9485;49.386;8.674;2023-03-05T20:40:45;6.80;;;4.23;;
18711;SDS011;9485;49.386;8.674;2023-03-05T20:46:12;6.17;;;4.30;;
18711;SDS011;9485;49.386;8.674;2023-03-05T20:51:36;5.60;;;4.63;;
18711;SDS011;9485;49.386;8.674;2023-03-05T20:56:57;7.73;;;4.97;;
18711;SDS011;9485;49.386;8.674;2023-03-05T21:02:17;6.23;;;4.60;;
18711;SDS011;9485;49.386;8.674;2023-03-05T21:07:39;7.70;;;5.03;;
18711;SDS011;9485;49.386;8.674;2023-03-05T21:13:00;7.07;;;4.73;;
18711;SDS011;9485;49.386;8.674;2023-03-05T21:18:20;8.67;;;5.80;;
18711;SDS011;9485;49.386;8.674;2023-03-05T21:23:43;8.80;;;5.80;;
18711;SDS011;9485;49.386;8.674;2023-03-05T21:29:03;6.63;;;5.37;;
18711;SDS011;9485;49.386;8.674;2023-03-05T21:34:24;7.53;;;5.10;;
18711;SDS011;9485;49.386;8.674;2023-03-05T21:39:46;6.43;;;5.10;;
18711;SDS011;9485;49.386;8.674;2023-03-05T21:45:07;7.43;;;5.70;;
18711;SDS011;9485;49.386;8.674;2023-03-05T21:50:30;6.53;;;5.30;;
18711;SDS011;9485;49.386;8.674;2023-03-05T21:55:53;8.50;;;5.90;;
18711;SDS011;9485;49.386;8.674;2023-03-05T22:01:23;8.50;;;5.73;;
18711;SDS011;9485;49.386;8.674;2023-03-05T22:06:44;7.07;;;5.67;;
18711;SDS011;9485;49.386;8.674;2023-03-05T22:12:06;8.90;;;6.27;;
18711;SDS011;9485;49.386;8.674;2023-03-05T22:17:27;8.83;;;6.47;;
18711;SDS011;9485;49.386;8.674;2023-03-05T22:22:48;10.00;;;6.70;;
18711;SDS011;9485;49.386;8.674;2023-03-05T22:28:11;9.17;;;6.70;;
18711;SDS011;9485;49.386;8.674;2023-03-05T22:33:31;10.73;;;7.23;;
18711;SDS011;9485;49.386;8.674;2023-03-05T22:38:52;10.20;;;7.30;;
18711;SDS011;9485;49.386;8.674;2023-03-05T22:44:14;13.10;;;7.73;;
18711;SDS011;9485;49.386;8.674;2023-03-05T22:49:35;10.87;;;7.73;;
18711;SDS011;9485;49.386;8.674;2023-03-05T22:54:56;12.60;;;8.23;;
18711;SDS011;9485;49.386;8.674;2023-03-05T23:00:21;9.13;;;6.83;;
18711;SDS011;9485;49.386;8.674;2023-03-05T23:05:44;9.00;;;7.20;;
18711;SDS011;9485;49.386;8.674;2023-03-05T23:11:08;9.13;;;6.97;;
18711;SDS011;9485;49.386;8.674;2023-03-05T23:16:32;10.63;;;7.47;;
18711;SDS011;9485;49.386;8.674;2023-03-05T23:21:53;10.83;;;7.53;;
18711;SDS011;9485;49.386;8.674;2023-03-05T23:27:14;11.40;;;8.33;;
18711;SDS011;9485;49.386;8.674;2023-03-05T23:32:38;12.80;;;7.97;;
18711;SDS011;9485;49.386;8.674;2023-03-05T23:37:59;11.60;;;8.60;;
18711;SDS011;9485;49.386;8.674;2023-03-05T23:43:23;14.07;;;8.83;;
18711;SDS011;9485;49.386;8.674;2023-03-05T23:48:45;12.57;;;9.00;;
18711;SDS011;9485;49.386;8.674;2023-03-05T23:54:06;14.67;;;9.13;;
18711;SDS011;9485;49.386;8.674;2023-03-05T23:59:27;14.07;;;7.83;;
